createdAt,value
2022-10-20T00:00:11.802Z,38.15
2022-10-20T00:01:11.658Z,35.89
2022-10-20T00:01:58.715Z,35.35
2022-10-20T00:02:52.730Z,39.38
2022-10-20T00:03:47.684Z,41.55
2022-10-20T00:04:41.680Z,37.33
2022-10-20T00:05:35.685Z,37.49
2022-10-20T00:06:45.650Z,37.21
2022-10-20T00:07:25.713Z,35.04
2022-10-20T00:08:05.724Z,31.89
2022-10-20T00:08:47.694Z,31.83
2022-10-20T00:09:27.720Z,32.22
2022-10-20T00:10:07.652Z,31.79
2022-10-20T00:10:48.787Z,31.79
2022-10-20T00:11:30.669Z,30.10
2022-10-20T00:12:11.721Z,31.04
2022-10-20T00:12:52.681Z,30.11
2022-10-20T00:13:26.434Z,29.46
2022-10-20T00:14:14.683Z,29.13
2022-10-20T00:14:48.477Z,29.65
2022-10-20T00:15:35.709Z,32.05
2022-10-20T00:16:09.572Z,33.76
2022-10-20T00:16:56.658Z,35.79
2022-10-20T00:17:30.444Z,36.19
2022-10-20T00:18:17.788Z,35.75
2022-10-20T00:18:51.892Z,35.21
2022-10-20T00:19:39.709Z,35.15
2022-10-20T00:21:06.730Z,35.08
2022-10-20T00:21:40.432Z,35.25
2022-10-20T00:22:28.640Z,35.04
2022-10-20T00:23:02.368Z,34.09
2022-10-20T00:23:43.713Z,32.84
2022-10-20T00:24:20.774Z,32.03
2022-10-20T00:24:54.380Z,31.58
2022-10-20T00:25:34.682Z,30.65
2022-10-20T00:26:17.712Z,30.19
2022-10-20T00:26:52.337Z,30.34
2022-10-20T00:27:32.694Z,30.70
2022-10-20T00:28:06.738Z,30.21
2022-10-20T00:28:40.446Z,29.55
2022-10-20T00:29:20.709Z,29.63
2022-10-20T00:29:55.774Z,29.36
2022-10-20T00:30:29.423Z,30.17
2022-10-20T00:31:11.678Z,30.06
2022-10-20T00:31:45.745Z,29.41
2022-10-20T00:32:19.412Z,28.83
2022-10-20T00:32:59.680Z,28.39
2022-10-20T00:33:33.860Z,28.29
2022-10-20T00:34:07.363Z,27.71
2022-10-20T00:34:48.740Z,27.83
2022-10-20T00:35:22.720Z,28.20
2022-10-20T00:36:03.869Z,29.05
2022-10-20T00:36:50.316Z,28.36
2022-10-20T00:37:25.760Z,28.66
2022-10-20T00:37:59.604Z,29.13
2022-10-20T00:38:41.712Z,28.38
2022-10-20T00:39:15.751Z,28.77
2022-10-20T00:39:55.677Z,29.14
2022-10-20T00:40:35.749Z,29.21
2022-10-20T00:41:18.649Z,28.76
2022-10-20T00:41:59.695Z,28.74
2022-10-20T00:42:39.847Z,29.19
2022-10-20T00:43:21.708Z,29.39
2022-10-20T00:44:44.646Z,28.86
2022-10-20T00:45:28.795Z,27.85
2022-10-20T00:46:04.748Z,27.40
2022-10-20T00:46:40.906Z,27.84
2022-10-20T00:47:28.649Z,28.13
2022-10-20T00:48:06.781Z,28.17
2022-10-20T00:48:41.916Z,28.64
2022-10-20T00:49:29.713Z,28.34
2022-10-20T00:50:03.780Z,28.36
2022-10-20T00:50:50.678Z,27.99
2022-10-20T00:51:35.783Z,27.63
2022-10-20T00:52:17.654Z,26.91
2022-10-20T00:52:58.694Z,27.31
2022-10-20T00:53:39.771Z,27.16
2022-10-20T00:54:24.884Z,26.54
2022-10-20T00:55:07.663Z,26.27
2022-10-20T00:55:49.688Z,27.83
2022-10-20T00:56:29.690Z,28.66
2022-10-20T00:57:10.715Z,27.94
2022-10-20T00:57:55.696Z,27.86
2022-10-20T00:58:35.751Z,28.98
2022-10-20T00:59:17.692Z,28.05
2022-10-20T00:59:57.649Z,26.46
2022-10-20T01:00:37.644Z,24.85
2022-10-20T01:01:18.717Z,25.35
2022-10-20T01:02:00.812Z,27.81
2022-10-20T01:02:41.702Z,28.64
2022-10-20T01:03:27.624Z,28.10
2022-10-20T01:04:08.784Z,27.90
2022-10-20T01:04:48.691Z,28.60
2022-10-20T01:05:29.723Z,28.58
2022-10-20T01:06:10.642Z,29.31
2022-10-20T01:06:51.710Z,29.60
2022-10-20T01:07:31.630Z,29.54
2022-10-20T01:08:12.763Z,29.95
2022-10-20T01:08:52.714Z,29.66
2022-10-20T01:09:33.810Z,29.54
2022-10-20T01:10:14.728Z,28.42
2022-10-20T01:11:16.663Z,28.21
2022-10-20T01:12:14.684Z,28.08
2022-10-20T01:13:13.701Z,28.58
2022-10-20T01:14:14.778Z,29.06
2022-10-20T01:15:14.712Z,28.20
2022-10-20T01:16:05.758Z,28.33
2022-10-20T01:17:21.589Z,28.90
2022-10-20T01:18:38.701Z,29.17
2022-10-20T01:20:09.661Z,29.25
2022-10-20T01:21:15.625Z,30.20
2022-10-20T01:22:35.628Z,30.61
2022-10-20T01:23:59.686Z,30.34
2022-10-20T01:25:18.551Z,29.63
2022-10-20T01:26:45.617Z,29.40
2022-10-20T01:27:59.617Z,30.01
2022-10-20T01:29:00.678Z,29.45
2022-10-20T01:30:19.625Z,28.89
2022-10-20T01:31:15.617Z,29.15
2022-10-20T01:32:40.578Z,29.58
2022-10-20T01:33:50.601Z,28.61
2022-10-20T01:34:58.668Z,28.79
2022-10-20T01:35:56.702Z,28.84
2022-10-20T01:36:57.776Z,28.05
2022-10-20T01:37:49.570Z,28.51
2022-10-20T01:39:02.560Z,28.70
2022-10-20T01:40:06.622Z,28.88
2022-10-20T01:41:06.606Z,30.24
2022-10-20T01:42:09.560Z,29.69
2022-10-20T01:43:05.621Z,29.08
2022-10-20T01:43:59.572Z,28.51
2022-10-20T01:44:54.602Z,29.29
2022-10-20T01:45:38.774Z,29.01
2022-10-20T01:46:19.782Z,29.55
2022-10-20T01:47:00.580Z,28.98
2022-10-20T01:47:42.713Z,28.88
2022-10-20T01:48:28.610Z,29.50
2022-10-20T01:49:10.709Z,29.64
2022-10-20T01:49:53.657Z,29.96
2022-10-20T01:50:33.654Z,29.75
2022-10-20T01:51:14.570Z,29.26
2022-10-20T01:51:54.640Z,29.38
2022-10-20T01:52:35.746Z,29.44
2022-10-20T01:53:16.581Z,29.25
2022-10-20T01:53:56.584Z,29.70
2022-10-20T01:54:37.662Z,29.65
2022-10-20T01:55:23.600Z,29.98
2022-10-20T01:56:05.701Z,29.65
2022-10-20T01:57:35.576Z,28.58
2022-10-20T01:58:43.696Z,28.39
2022-10-20T01:59:39.605Z,29.42
2022-10-20T02:00:22.593Z,29.31
2022-10-20T02:01:20.648Z,29.16
2022-10-20T02:02:44.632Z,29.80
2022-10-20T02:04:09.609Z,30.19
2022-10-20T02:05:32.603Z,29.83
2022-10-20T02:06:41.617Z,28.23
2022-10-20T02:07:41.653Z,27.98
2022-10-20T02:09:03.713Z,27.99
2022-10-20T02:09:51.669Z,26.69
2022-10-20T02:10:41.608Z,26.99
2022-10-20T02:11:34.608Z,27.40
2022-10-20T02:12:24.519Z,26.39
2022-10-20T02:13:07.606Z,26.84
2022-10-20T02:13:49.540Z,26.86
2022-10-20T02:14:39.605Z,26.80
2022-10-20T02:15:15.670Z,26.94
2022-10-20T02:16:07.582Z,26.26
2022-10-20T02:16:47.659Z,26.56
2022-10-20T02:17:36.582Z,25.70
2022-10-20T02:18:13.652Z,25.83
2022-10-20T02:19:00.616Z,26.48
2022-10-20T02:19:48.636Z,26.11
2022-10-20T02:20:45.701Z,26.16
2022-10-20T02:21:39.842Z,25.98
2022-10-20T02:22:34.842Z,26.41
2022-10-20T02:23:35.003Z,26.83
2022-10-20T02:24:32.629Z,26.66
2022-10-20T02:25:16.593Z,26.65
2022-10-20T02:25:59.612Z,26.52
2022-10-20T02:26:41.584Z,25.91
2022-10-20T02:27:31.660Z,25.50
2022-10-20T02:28:13.618Z,26.02
2022-10-20T02:29:00.703Z,25.74
2022-10-20T02:29:51.555Z,25.91
2022-10-20T02:30:31.617Z,25.04
2022-10-20T02:31:05.708Z,25.63
2022-10-20T02:31:53.549Z,25.99
2022-10-20T02:32:28.608Z,25.48
2022-10-20T02:33:15.616Z,24.91
2022-10-20T02:33:50.709Z,25.59
2022-10-20T02:34:41.036Z,25.04
2022-10-20T02:35:30.573Z,24.90
2022-10-20T02:36:13.684Z,24.86
2022-10-20T02:36:53.580Z,25.41
2022-10-20T02:37:33.844Z,26.00
2022-10-20T02:38:15.600Z,25.76
2022-10-20T02:38:55.488Z,26.09
2022-10-20T02:39:35.658Z,26.14
2022-10-20T02:40:17.523Z,26.14
2022-10-20T02:40:57.657Z,24.91
2022-10-20T02:41:37.603Z,24.01
2022-10-20T02:42:17.655Z,24.25
2022-10-20T02:42:57.602Z,24.76
2022-10-20T02:43:52.510Z,24.67
2022-10-20T02:44:46.569Z,23.20
2022-10-20T02:45:40.585Z,23.13
2022-10-20T02:46:34.612Z,23.30
2022-10-20T02:47:14.613Z,24.01
2022-10-20T02:47:54.666Z,23.45
2022-10-20T02:48:34.568Z,23.19
2022-10-20T02:49:14.661Z,22.92
2022-10-20T02:49:55.488Z,22.54
2022-10-20T02:50:35.670Z,22.34
2022-10-20T02:51:15.497Z,22.58
2022-10-20T02:51:55.779Z,22.83
2022-10-20T02:52:36.577Z,21.80
2022-10-20T02:53:16.557Z,22.40
2022-10-20T02:53:57.582Z,22.76
2022-10-20T02:54:37.611Z,23.50
2022-10-20T02:55:58.957Z,21.91
2022-10-20T02:56:38.548Z,21.99
2022-10-20T02:57:18.660Z,20.69
2022-10-20T02:58:00.532Z,21.15
2022-10-20T02:58:41.619Z,21.35
2022-10-20T02:59:25.572Z,21.65
2022-10-20T03:00:05.594Z,22.27
2022-10-20T03:00:45.605Z,22.38
2022-10-20T03:01:25.727Z,22.54
2022-10-20T03:02:05.521Z,23.00
2022-10-20T03:02:45.888Z,23.13
2022-10-20T03:03:26.622Z,23.91
2022-10-20T03:04:06.636Z,24.31
2022-10-20T03:04:46.514Z,23.64
2022-10-20T03:05:27.170Z,22.60
2022-10-20T03:06:19.500Z,22.66
2022-10-20T03:06:59.543Z,22.38
2022-10-20T03:07:39.570Z,22.33
2022-10-20T03:08:21.168Z,22.89
2022-10-20T03:09:02.644Z,22.66
2022-10-20T03:09:44.188Z,22.59
2022-10-20T03:10:24.558Z,22.51
2022-10-20T03:11:04.669Z,22.56
2022-10-20T03:11:44.502Z,22.39
2022-10-20T03:12:27.701Z,22.38
2022-10-20T03:13:12.523Z,22.21
2022-10-20T03:13:52.627Z,21.96
2022-10-20T03:14:32.547Z,22.30
2022-10-20T03:15:13.633Z,22.15
2022-10-20T03:15:53.557Z,21.59
2022-10-20T03:16:33.585Z,20.79
2022-10-20T03:17:13.562Z,20.48
2022-10-20T03:18:02.574Z,20.52
2022-10-20T03:18:42.580Z,20.80
2022-10-20T03:19:23.567Z,21.41
2022-10-20T03:20:03.708Z,22.46
2022-10-20T03:20:43.678Z,21.70
2022-10-20T03:21:24.653Z,21.10
2022-10-20T03:22:04.703Z,20.64
2022-10-20T03:22:45.555Z,19.95
2022-10-20T03:23:26.646Z,20.39
2022-10-20T03:24:06.505Z,20.27
2022-10-20T03:24:46.636Z,19.30
2022-10-20T03:25:26.510Z,19.64
2022-10-20T03:26:16.712Z,20.95
2022-10-20T03:26:56.562Z,20.10
2022-10-20T03:27:36.936Z,20.06
2022-10-20T03:28:17.651Z,20.23
2022-10-20T03:28:57.612Z,20.11
2022-10-20T03:29:37.460Z,19.60
2022-10-20T03:30:17.734Z,18.90
2022-10-20T03:30:57.509Z,19.13
2022-10-20T03:31:37.619Z,19.79
2022-10-20T03:32:18.467Z,19.01
2022-10-20T03:32:58.615Z,18.94
2022-10-20T03:33:39.444Z,19.14
2022-10-20T03:34:19.586Z,19.26
2022-10-20T03:34:59.584Z,19.16
2022-10-20T03:35:39.502Z,19.92
2022-10-20T03:36:19.480Z,20.85
2022-10-20T03:37:00.557Z,21.19
2022-10-20T03:37:40.487Z,21.71
2022-10-20T03:38:20.749Z,21.67
2022-10-20T03:39:00.520Z,20.95
2022-10-20T03:39:40.547Z,21.25
2022-10-20T03:40:20.438Z,22.05
2022-10-20T03:41:41.576Z,22.31
2022-10-20T03:42:21.585Z,23.11
2022-10-20T03:43:01.576Z,23.86
2022-10-20T03:43:41.476Z,23.91
2022-10-20T03:44:21.461Z,23.49
2022-10-20T03:45:01.543Z,24.04
2022-10-20T03:45:41.468Z,24.64
2022-10-20T03:46:21.594Z,24.65
2022-10-20T03:47:02.514Z,24.17
2022-10-20T03:47:43.586Z,24.59
2022-10-20T03:48:24.465Z,25.30
2022-10-20T03:49:04.604Z,25.99
2022-10-20T03:49:45.434Z,26.46
2022-10-20T03:50:25.988Z,26.20
2022-10-20T03:51:08.420Z,26.27
2022-10-20T03:51:48.583Z,26.50
2022-10-20T03:52:28.458Z,27.33
2022-10-20T03:53:08.619Z,27.55
2022-10-20T03:53:49.445Z,27.58
2022-10-20T03:54:29.552Z,27.33
2022-10-20T03:55:11.433Z,26.81
2022-10-20T03:55:52.801Z,26.40
2022-10-20T03:56:33.474Z,26.30
2022-10-20T03:57:13.493Z,26.69
2022-10-20T03:57:53.475Z,26.60
2022-10-20T03:58:33.579Z,26.58
2022-10-20T03:59:13.433Z,25.67
2022-10-20T03:59:53.572Z,24.51
2022-10-20T04:00:33.494Z,25.13
2022-10-20T04:01:14.691Z,25.56
2022-10-20T04:01:54.530Z,25.75
2022-10-20T04:02:50.601Z,25.48
2022-10-20T04:03:30.452Z,24.65
2022-10-20T04:04:10.828Z,25.24
2022-10-20T04:04:50.458Z,25.96
2022-10-20T04:05:30.681Z,25.34
2022-10-20T04:06:11.509Z,25.19
2022-10-20T04:06:51.637Z,25.64
2022-10-20T04:07:31.508Z,25.79
2022-10-20T04:08:11.500Z,26.04
2022-10-20T04:08:51.477Z,26.44
2022-10-20T04:09:31.571Z,26.48
2022-10-20T04:10:12.466Z,27.45
2022-10-20T04:10:52.486Z,29.48
2022-10-20T04:11:33.447Z,30.49
2022-10-20T04:12:13.549Z,28.94
2022-10-20T04:12:53.496Z,28.94
2022-10-20T04:13:33.473Z,28.98
2022-10-20T04:14:13.475Z,28.77
2022-10-20T04:14:54.602Z,29.26
2022-10-20T04:15:35.493Z,30.71
2022-10-20T04:16:15.562Z,31.63
2022-10-20T04:16:55.440Z,32.53
2022-10-20T04:17:36.835Z,31.83
2022-10-20T04:18:16.489Z,31.08
2022-10-20T04:18:58.514Z,29.70
2022-10-20T04:19:38.475Z,29.33
2022-10-20T04:20:19.526Z,28.31
2022-10-20T04:20:59.492Z,27.61
2022-10-20T04:21:39.665Z,27.55
2022-10-20T04:22:20.469Z,27.83
2022-10-20T04:23:00.547Z,28.25
2022-10-20T04:23:40.497Z,28.17
2022-10-20T04:24:20.556Z,28.25
2022-10-20T04:25:01.578Z,29.81
2022-10-20T04:25:45.557Z,32.95
2022-10-20T04:26:25.416Z,35.35
2022-10-20T04:27:05.570Z,38.90
2022-10-20T04:27:47.461Z,38.91
2022-10-20T04:28:28.506Z,38.14
2022-10-20T04:29:09.410Z,38.33
2022-10-20T04:29:50.540Z,36.60
2022-10-20T04:30:30.422Z,31.65
2022-10-20T04:31:11.473Z,29.11
2022-10-20T04:31:52.449Z,31.51
2022-10-20T04:32:32.573Z,33.30
2022-10-20T04:33:12.435Z,33.10
2022-10-20T04:33:52.568Z,32.63
2022-10-20T04:34:33.430Z,33.22
2022-10-20T04:35:14.527Z,33.05
2022-10-20T04:35:54.487Z,33.39
2022-10-20T04:36:34.579Z,33.09
2022-10-20T04:37:14.402Z,31.74
2022-10-20T04:37:54.476Z,30.98
2022-10-20T04:38:37.464Z,31.23
2022-10-20T04:39:18.551Z,31.71
2022-10-20T04:39:58.413Z,32.51
2022-10-20T04:40:38.515Z,32.86
2022-10-20T04:41:18.397Z,32.04
2022-10-20T04:41:58.468Z,31.67
2022-10-20T04:42:39.381Z,32.00
2022-10-20T04:43:19.486Z,32.26
2022-10-20T04:44:00.394Z,31.81
2022-10-20T04:44:40.452Z,31.79
2022-10-20T04:45:20.457Z,31.41
2022-10-20T04:46:02.645Z,30.90
2022-10-20T04:46:45.405Z,30.99
2022-10-20T04:47:25.457Z,31.17
2022-10-20T04:48:05.379Z,30.02
2022-10-20T04:48:49.481Z,29.79
2022-10-20T04:49:30.390Z,30.46
2022-10-20T04:50:11.477Z,30.59
2022-10-20T04:50:51.400Z,30.35
2022-10-20T04:51:45.412Z,30.52
2022-10-20T04:52:39.382Z,30.17
2022-10-20T04:53:33.389Z,28.65
2022-10-20T04:54:27.362Z,29.13
2022-10-20T04:55:22.352Z,27.77
2022-10-20T04:56:18.414Z,26.89
2022-10-20T04:57:05.429Z,27.09
2022-10-20T04:57:40.447Z,28.02
2022-10-20T04:58:27.376Z,28.29
2022-10-20T04:59:03.436Z,29.74
2022-10-20T04:59:50.345Z,29.64
2022-10-20T05:00:24.477Z,28.76
2022-10-20T05:01:16.354Z,29.36
2022-10-20T05:01:50.472Z,29.54
2022-10-20T05:02:31.393Z,29.46
2022-10-20T05:03:57.370Z,29.41
2022-10-20T05:04:37.461Z,29.39
2022-10-20T05:05:17.365Z,29.92
2022-10-20T05:05:57.414Z,29.05
2022-10-20T05:06:39.352Z,29.58
2022-10-20T05:07:19.406Z,29.92
2022-10-20T05:08:00.402Z,29.61
2022-10-20T05:08:40.620Z,29.45
2022-10-20T05:09:22.354Z,33.54
2022-10-20T05:10:02.531Z,37.83
2022-10-20T05:10:42.344Z,36.49
2022-10-20T05:11:23.460Z,32.88
2022-10-20T05:12:04.566Z,31.17
2022-10-20T05:12:45.420Z,30.88
2022-10-20T05:13:25.360Z,31.16
2022-10-20T05:14:05.431Z,30.76
2022-10-20T05:14:45.369Z,31.66
2022-10-20T05:15:25.453Z,32.31
2022-10-20T05:16:05.539Z,31.35
2022-10-20T05:16:52.752Z,31.36
2022-10-20T05:17:35.346Z,32.03
2022-10-20T05:18:15.425Z,33.13
2022-10-20T05:18:58.548Z,32.81
2022-10-20T05:19:38.443Z,32.89
2022-10-20T05:20:18.408Z,33.59
2022-10-20T05:21:08.456Z,34.01
2022-10-20T05:21:49.318Z,34.03
2022-10-20T05:22:29.464Z,33.51
2022-10-20T05:23:09.407Z,34.38
2022-10-20T05:23:50.413Z,36.30
2022-10-20T05:24:31.457Z,35.54
2022-10-20T05:25:35.133Z,32.22
2022-10-20T05:26:25.317Z,31.20
2022-10-20T05:27:05.436Z,33.06
2022-10-20T05:27:45.315Z,34.84
2022-10-20T05:28:25.489Z,39.30
2022-10-20T05:29:05.354Z,45.99
2022-10-20T05:29:45.469Z,51.46
2022-10-20T05:30:19.414Z,51.35
2022-10-20T05:31:15.348Z,51.59
2022-10-20T05:31:51.440Z,47.71
2022-10-20T05:32:38.559Z,35.86
2022-10-20T05:33:12.400Z,34.33
2022-10-20T05:34:02.308Z,30.99
2022-10-20T05:34:36.373Z,29.13
2022-10-20T05:35:16.373Z,31.01
2022-10-20T05:35:56.423Z,44.91
2022-10-20T05:36:37.390Z,47.45
2022-10-20T05:37:17.445Z,39.96
2022-10-20T05:37:57.318Z,37.67
2022-10-20T05:38:37.493Z,39.22
2022-10-20T05:39:20.716Z,44.11
2022-10-20T05:40:06.557Z,48.31
2022-10-20T05:40:46.347Z,47.24
2022-10-20T05:41:31.199Z,44.99
2022-10-20T05:42:13.313Z,46.91
2022-10-20T05:42:53.419Z,49.79
2022-10-20T05:43:33.312Z,52.10
2022-10-20T05:44:15.426Z,54.99
2022-10-20T05:44:55.313Z,50.75
2022-10-20T05:45:35.375Z,47.79
2022-10-20T05:46:16.334Z,51.83
2022-10-20T05:46:56.433Z,53.26
2022-10-20T05:47:36.347Z,55.69
2022-10-20T05:48:16.365Z,53.88
2022-10-20T05:49:02.369Z,53.88
2022-10-20T05:49:56.340Z,54.30
2022-10-20T05:50:50.303Z,53.33
2022-10-20T05:51:41.325Z,54.25
2022-10-20T05:52:15.378Z,57.55
2022-10-20T05:53:02.288Z,57.97
2022-10-20T05:53:36.368Z,56.33
2022-10-20T05:54:23.285Z,55.22
2022-10-20T05:54:57.446Z,56.49
2022-10-20T05:55:44.300Z,51.30
2022-10-20T05:56:23.438Z,50.65
2022-10-20T05:57:03.348Z,58.79
2022-10-20T05:57:43.410Z,61.14
2022-10-20T05:58:28.305Z,62.01
2022-10-20T05:59:08.402Z,54.74
2022-10-20T05:59:49.325Z,46.55
2022-10-20T06:00:31.535Z,44.40
2022-10-20T06:01:24.483Z,41.61
2022-10-20T06:03:13.937Z,44.03
2022-10-20T06:04:00.392Z,42.58
2022-10-20T06:04:41.314Z,41.74
2022-10-20T06:05:21.382Z,40.85
2022-10-20T06:06:06.278Z,41.14
2022-10-20T06:06:48.730Z,40.46
2022-10-20T06:07:28.334Z,39.67
2022-10-20T06:08:08.417Z,39.49
2022-10-20T06:08:48.299Z,40.20
2022-10-20T06:09:29.361Z,38.88
2022-10-20T06:10:18.322Z,38.17
2022-10-20T06:10:58.368Z,38.26
2022-10-20T06:11:39.429Z,38.14
2022-10-20T06:12:20.461Z,39.31
2022-10-20T06:13:00.372Z,39.63
2022-10-20T06:13:40.379Z,40.52
2022-10-20T06:14:21.292Z,40.30
2022-10-20T06:15:01.378Z,40.69
2022-10-20T06:15:44.362Z,39.95
2022-10-20T06:16:30.569Z,39.79
2022-10-20T06:17:10.264Z,40.75
2022-10-20T06:17:52.373Z,39.72
2022-10-20T06:18:42.315Z,39.50
2022-10-20T06:19:23.342Z,39.60
2022-10-20T06:20:03.279Z,39.06
2022-10-20T06:20:43.352Z,37.94
2022-10-20T06:21:29.390Z,38.35
2022-10-20T06:22:09.370Z,38.46
2022-10-20T06:22:50.320Z,37.72
2022-10-20T06:23:30.365Z,37.64
2022-10-20T06:24:12.305Z,36.79
2022-10-20T06:24:52.323Z,36.66
2022-10-20T06:25:32.267Z,35.65
2022-10-20T06:26:19.394Z,35.14
2022-10-20T06:26:59.301Z,33.84
2022-10-20T06:27:39.339Z,32.56
2022-10-20T06:28:19.325Z,31.81
2022-10-20T06:29:05.021Z,31.65
2022-10-20T06:29:45.370Z,32.05
2022-10-20T06:30:25.339Z,32.67
2022-10-20T06:31:06.264Z,32.64
2022-10-20T06:31:50.380Z,31.49
2022-10-20T06:32:30.310Z,31.29
2022-10-20T06:33:12.317Z,30.70
2022-10-20T06:33:54.267Z,30.44
2022-10-20T06:34:34.377Z,29.51
2022-10-20T06:35:15.324Z,30.17
2022-10-20T06:35:55.371Z,30.54
2022-10-20T06:36:36.264Z,29.73
2022-10-20T06:37:30.323Z,27.39
2022-10-20T06:38:24.244Z,27.29
2022-10-20T06:39:21.290Z,27.99
2022-10-20T06:40:15.292Z,28.41
2022-10-20T06:41:09.283Z,28.39
2022-10-20T06:42:09.490Z,28.60
2022-10-20T06:43:06.262Z,28.92
2022-10-20T06:44:06.329Z,29.90
2022-10-20T06:45:01.254Z,31.21
2022-10-20T06:45:41.269Z,33.90
2022-10-20T06:46:25.323Z,34.33
2022-10-20T06:47:05.256Z,34.04
2022-10-20T06:47:45.311Z,32.91
2022-10-20T06:48:25.313Z,32.44
2022-10-20T06:49:13.356Z,32.64
2022-10-20T06:49:55.269Z,32.34
2022-10-20T06:50:35.321Z,31.96
2022-10-20T06:51:20.269Z,32.81
2022-10-20T06:52:00.393Z,33.60
2022-10-20T06:52:41.224Z,32.49
2022-10-20T06:53:21.332Z,31.83
2022-10-20T06:54:02.260Z,31.71
2022-10-20T06:54:42.297Z,32.88
2022-10-20T06:55:23.254Z,33.08
2022-10-20T06:56:08.328Z,33.41
2022-10-20T06:56:48.278Z,33.47
2022-10-20T06:57:28.301Z,34.38
2022-10-20T06:58:08.225Z,35.36
2022-10-20T06:58:50.304Z,36.29
2022-10-20T06:59:30.244Z,36.13
2022-10-20T07:00:12.337Z,35.99
2022-10-20T07:00:52.274Z,35.59
2022-10-20T07:01:40.433Z,35.74
2022-10-20T07:02:22.279Z,35.11
2022-10-20T07:03:02.272Z,34.97
2022-10-20T07:03:43.273Z,35.06
2022-10-20T07:04:23.333Z,35.16
2022-10-20T07:05:03.260Z,33.90
2022-10-20T07:05:43.281Z,33.36
2022-10-20T07:06:36.224Z,33.38
2022-10-20T07:07:16.293Z,32.89
2022-10-20T07:08:00.251Z,32.81
2022-10-20T07:08:42.390Z,33.16
2022-10-20T07:09:25.244Z,33.39
2022-10-20T07:10:05.381Z,32.67
2022-10-20T07:10:45.232Z,31.65
2022-10-20T07:11:27.331Z,30.66
2022-10-20T07:12:09.249Z,29.76
2022-10-20T07:12:49.301Z,29.29
2022-10-20T07:13:29.265Z,29.41
2022-10-20T07:14:10.309Z,28.49
2022-10-20T07:14:50.266Z,28.20
2022-10-20T07:15:30.268Z,27.99
2022-10-20T07:16:12.217Z,28.79
2022-10-20T07:16:52.320Z,29.42
2022-10-20T07:17:33.223Z,28.89
2022-10-20T07:18:13.277Z,28.46
2022-10-20T07:18:54.253Z,28.95
2022-10-20T07:19:34.296Z,29.08
2022-10-20T07:20:15.228Z,28.75
2022-10-20T07:20:55.301Z,28.86
2022-10-20T07:21:45.279Z,29.50
2022-10-20T07:22:28.295Z,29.45
2022-10-20T07:23:08.251Z,29.51
2022-10-20T07:23:49.308Z,29.77
2022-10-20T07:24:30.240Z,29.96
2022-10-20T07:25:10.267Z,29.52
2022-10-20T07:25:50.250Z,28.92
2022-10-20T07:26:40.938Z,29.01
2022-10-20T07:27:23.226Z,28.92
2022-10-20T07:28:03.265Z,29.26
2022-10-20T07:28:53.346Z,29.77
2022-10-20T07:29:43.246Z,30.00
2022-10-20T07:30:37.222Z,29.79
2022-10-20T07:31:41.230Z,29.20
2022-10-20T07:32:35.482Z,30.35
2022-10-20T07:33:29.213Z,29.91
2022-10-20T07:34:27.992Z,29.89
2022-10-20T07:35:08.306Z,29.79
2022-10-20T07:36:03.185Z,29.42
2022-10-20T07:37:00.330Z,29.51
2022-10-20T07:37:54.196Z,29.15
2022-10-20T07:38:48.239Z,28.45
2022-10-20T07:39:45.184Z,28.45
2022-10-20T07:40:32.321Z,28.89
2022-10-20T07:41:12.587Z,28.84
2022-10-20T07:41:59.228Z,28.41
2022-10-20T07:42:35.089Z,27.96
2022-10-20T07:43:23.195Z,27.79
2022-10-20T07:43:58.950Z,27.36
2022-10-20T07:44:46.167Z,27.67
2022-10-20T07:45:20.278Z,27.92
2022-10-20T07:46:00.244Z,27.86
2022-10-20T07:46:40.287Z,27.50
2022-10-20T07:47:21.176Z,28.11
2022-10-20T07:48:02.017Z,27.52
2022-10-20T07:48:43.184Z,27.52
2022-10-20T07:50:24.222Z,27.67
2022-10-20T07:51:50.263Z,27.99
2022-10-20T07:52:47.248Z,28.20
2022-10-20T07:53:47.885Z,27.95
2022-10-20T07:54:43.170Z,27.96
2022-10-20T07:55:41.198Z,27.89
2022-10-20T07:56:42.169Z,27.33
2022-10-20T07:57:25.254Z,27.80
2022-10-20T07:58:05.233Z,27.91
2022-10-20T07:58:47.168Z,27.46
2022-10-20T07:59:27.385Z,27.52
2022-10-20T08:00:07.182Z,26.95
2022-10-20T08:00:47.261Z,26.36
2022-10-20T08:01:27.270Z,25.80
2022-10-20T08:02:07.339Z,25.25
2022-10-20T08:02:52.243Z,24.34
2022-10-20T08:03:32.261Z,24.09
2022-10-20T08:04:12.161Z,24.10
2022-10-20T08:05:04.973Z,23.61
2022-10-20T08:05:48.377Z,22.67
2022-10-20T08:06:28.234Z,22.79
2022-10-20T08:07:24.588Z,22.86
2022-10-20T08:08:12.280Z,22.19
2022-10-20T08:09:07.522Z,22.13
2022-10-20T08:10:01.157Z,21.88
2022-10-20T08:10:55.138Z,21.08
2022-10-20T08:11:52.799Z,20.46
2022-10-20T08:12:53.147Z,20.17
2022-10-20T08:13:35.188Z,19.54
2022-10-20T08:14:15.249Z,19.27
2022-10-20T08:14:55.150Z,19.40
2022-10-20T08:16:30.208Z,19.38
2022-10-20T08:17:24.148Z,19.36
2022-10-20T08:18:26.861Z,18.31
2022-10-20T08:19:18.924Z,16.98
2022-10-20T08:20:14.772Z,15.75
2022-10-20T08:20:55.148Z,15.56
2022-10-20T08:21:36.421Z,14.68
2022-10-20T08:22:16.159Z,13.94
2022-10-20T08:22:56.215Z,13.10
2022-10-20T08:23:36.141Z,12.48
2022-10-20T08:24:23.221Z,11.46
2022-10-20T08:25:18.143Z,12.07
2022-10-20T08:26:12.185Z,11.61
2022-10-20T08:27:06.153Z,11.21
2022-10-20T08:28:00.223Z,10.61
2022-10-20T08:28:54.225Z,10.10
2022-10-20T08:29:41.196Z,9.11
2022-10-20T08:30:23.809Z,7.60
2022-10-20T08:31:13.152Z,7.64
2022-10-20T08:31:47.252Z,7.26
2022-10-20T08:32:34.412Z,7.34
2022-10-20T08:33:09.246Z,7.10
2022-10-20T08:33:57.123Z,7.15
2022-10-20T08:34:31.205Z,7.36
2022-10-20T08:35:12.219Z,7.40
2022-10-20T08:35:52.230Z,7.21
2022-10-20T08:36:34.304Z,7.34
2022-10-20T08:37:15.268Z,7.46
2022-10-20T08:37:56.213Z,7.45
2022-10-20T08:38:36.218Z,7.30
2022-10-20T08:39:16.132Z,6.91
2022-10-20T08:39:56.185Z,7.13
2022-10-20T08:40:37.200Z,7.16
2022-10-20T08:41:34.571Z,6.97
2022-10-20T08:42:17.317Z,6.70
2022-10-20T08:43:00.436Z,6.80
2022-10-20T08:43:43.088Z,6.99
2022-10-20T08:44:39.231Z,6.88
2022-10-20T08:45:29.105Z,6.74
2022-10-20T08:46:09.270Z,7.11
2022-10-20T08:46:46.258Z,7.04
2022-10-20T08:47:44.165Z,7.24
2022-10-20T08:48:36.186Z,7.30
2022-10-20T08:49:33.106Z,7.81
2022-10-20T08:50:10.139Z,8.64
2022-10-20T08:50:58.151Z,8.64
2022-10-20T08:51:46.174Z,8.18
2022-10-20T08:52:41.113Z,8.52
2022-10-20T08:53:38.319Z,9.10
2022-10-20T08:54:32.102Z,9.00
2022-10-20T08:55:45.125Z,9.26
2022-10-20T08:56:43.113Z,9.46
2022-10-20T08:57:38.496Z,9.88
2022-10-20T08:58:26.223Z,10.13
2022-10-20T08:59:07.323Z,9.90
2022-10-20T08:59:47.263Z,10.10
2022-10-20T09:00:31.115Z,10.20
2022-10-20T09:01:35.271Z,10.20
2022-10-20T09:02:23.145Z,9.59
2022-10-20T09:03:08.164Z,8.82
2022-10-20T09:03:42.325Z,8.46
2022-10-20T09:04:41.154Z,8.65
2022-10-20T09:05:18.394Z,8.54
2022-10-20T09:06:16.100Z,8.23
2022-10-20T09:06:50.189Z,8.52
2022-10-20T09:07:47.234Z,8.96
2022-10-20T09:08:31.265Z,8.76
2022-10-20T09:09:33.247Z,8.84
2022-10-20T09:10:38.140Z,8.79
2022-10-20T09:11:39.113Z,9.21
2022-10-20T09:12:34.145Z,9.60
2022-10-20T09:13:40.404Z,9.49
2022-10-20T09:14:35.137Z,9.27
2022-10-20T09:15:33.114Z,9.05
2022-10-20T09:16:59.195Z,9.05
2022-10-20T09:18:00.251Z,9.40
2022-10-20T09:18:54.165Z,9.43
2022-10-20T09:19:48.137Z,8.94
2022-10-20T09:20:48.147Z,8.56
2022-10-20T09:21:43.109Z,8.76
2022-10-20T09:22:40.128Z,8.89
2022-10-20T09:23:59.170Z,8.89
2022-10-20T09:24:54.145Z,8.89
2022-10-20T09:25:49.118Z,8.50
2022-10-20T09:27:09.135Z,7.96
2022-10-20T09:28:05.134Z,8.05
2022-10-20T09:29:12.885Z,8.00
2022-10-20T09:30:08.157Z,8.11
2022-10-20T09:31:02.137Z,8.24
2022-10-20T09:32:15.394Z,7.91
2022-10-20T09:33:13.140Z,7.66
2022-10-20T09:34:07.133Z,7.38
2022-10-20T09:35:01.264Z,7.11
2022-10-20T09:35:55.096Z,7.13
2022-10-20T09:36:49.086Z,6.79
2022-10-20T09:37:43.112Z,6.90
2022-10-20T09:38:40.099Z,6.56
2022-10-20T09:39:33.171Z,6.35
2022-10-20T09:40:07.159Z,5.97
2022-10-20T09:41:25.049Z,5.72
2022-10-20T09:42:14.373Z,5.66
2022-10-20T09:43:09.087Z,5.69
2022-10-20T09:44:05.149Z,5.63
2022-10-20T09:45:00.138Z,5.61
2022-10-20T09:45:37.156Z,5.78
2022-10-20T09:46:29.096Z,5.56
2022-10-20T09:47:03.173Z,5.88
2022-10-20T09:47:53.072Z,6.05
2022-10-20T09:48:47.883Z,5.64
2022-10-20T09:49:41.123Z,6.07
2022-10-20T09:50:34.145Z,5.85
2022-10-20T09:51:37.095Z,5.76